Time;durP1;ratioP1;P1;durP2;ratioP2;P2;SDS_P1;SDS_P2;PMS_P1;PMS_P2;Temp;Humidity;BMP_temperature;BMP_pressure;BME280_temperature;BME280_humidity;BME280_pressure;Samples;Min_cycle;Max_cycle;Signal;HPM_P1;HPM_P2
2021/09/21 00:00:19;;;;;;;5.53;3.05;;;;;;;10.84;85.53;101996.25;4930262;28;20552;-85
2021/09/21 00:02:47;;;;;;;4.55;2.70;;;;;;;10.83;85.66;102001.47;4937402;28;20047;-87
2021/09/21 00:05:26;;;;;;;4.95;3.33;;;;;;;10.81;85.62;102005.78;4938894;28;20169;-85
2021/09/21 00:07:55;;;;;;;4.95;3.22;;;;;;;10.80;85.70;102010.16;4923134;28;20438;-84
2021/09/21 00:10:22;;;;;;;4.13;3.63;;;;;;;10.79;86.15;102012.78;4920002;28;20062;-84
2021/09/21 00:12:55;;;;;;;4.43;3.25;;;;;;;10.77;86.35;102015.38;4918999;28;20051;-84
2021/09/21 00:15:26;;;;;;;3.00;2.80;;;;;;;10.75;86.73;102015.38;4921443;28;20613;-85
2021/09/21 00:17:53;;;;;;;5.25;3.83;;;;;;;10.76;87.07;102016.25;4917231;28;20181;-87
2021/09/21 00:20:21;;;;;;;6.03;4.25;;;;;;;10.76;86.95;102016.25;4937676;28;20406;-85
2021/09/21 00:22:51;;;;;;;3.30;3.00;;;;;;;10.74;86.72;102016.22;4923783;28;20066;-84
2021/09/21 00:25:22;;;;;;;4.10;3.22;;;;;;;10.75;87.17;102023.22;4929607;28;20043;-83
2021/09/21 00:27:54;;;;;;;;;;;;;;;10.75;87.82;102023.22;4941621;28;20608;-84
2021/09/21 00:30:36;;;;;;;3.92;2.85;;;;;;;10.79;86.99;102031.13;4925113;28;19930;-85
2021/09/21 00:33:05;;;;;;;5.38;4.20;;;;;;;10.81;86.64;102026.75;4918304;28;20406;-84
2021/09/21 00:35:37;;;;;;;4.05;3.30;;;;;;;10.83;86.94;102025.91;4917779;28;20052;-85
2021/09/21 00:38:08;;;;;;;4.22;3.20;;;;;;;10.86;86.40;102032.94;4951292;28;20147;-84
2021/09/21 00:40:55;;;;;;;3.70;3.20;;;;;;;10.85;86.90;102031.19;4934967;28;20386;-85
2021/09/21 00:43:25;;;;;;;5.32;4.05;;;;;;;10.85;86.53;102031.19;4917957;28;20102;-87
2021/09/21 00:46:03;;;;;;;4.63;3.88;;;;;;;10.84;86.53;102034.66;4934757;28;20053;-85
2021/09/21 00:48:30;;;;;;;4.05;3.75;;;;;;;10.84;86.76;102040.78;4933906;28;20414;-85
2021/09/21 00:51:07;;;;;;;;;;;;;;;;;;;;;
2021/09/21 00:53:34;;;;;;;6.60;4.03;;;;;;;10.85;86.68;102033.81;4934650;28;20188;-85
2021/09/21 00:56:04;;;;;;;5.10;3.10;;;;;;;10.83;86.45;102041.63;4936256;28;20062;-83
2021/09/21 00:58:31;;;;;;;4.57;3.60;;;;;;;10.82;86.61;102039.00;4918699;28;20043;-85
2021/09/21 01:01:00;;;;;;;7.03;3.90;;;;;;;10.81;86.87;102032.00;4934962;28;20058;-84
2021/09/21 01:03:28;;;;;;;5.32;3.38;;;;;;;10.76;86.68;102029.34;4936299;28;20409;-84
2021/09/21 01:05:57;;;;;;;5.78;4.00;;;;;;;10.73;86.62;102021.44;4916578;28;20074;-86
2021/09/21 01:08:29;;;;;;;4.53;3.58;;;;;;;10.68;87.33;102015.28;4925936;28;20529;-85
2021/09/21 01:10:56;;;;;;;5.07;3.47;;;;;;;10.59;87.53;102030.00;4919293;28;20199;-85
2021/09/21 01:13:25;;;;;;;4.50;3.90;;;;;;;10.54;87.63;102031.66;4937144;28;20110;-85
2021/09/21 01:15:52;;;;;;;4.03;3.15;;;;;;;10.51;87.66;102026.41;4933468;28;20043;-85
2021/09/21 01:18:29;;;;;;;6.50;4.30;;;;;;;10.47;87.88;102023.72;4937038;28;20067;-84
2021/09/21 01:21:08;;;;;;;;;;;;;;;10.40;88.68;102022.75;4924626;28;20073;-85
2021/09/21 01:23:48;;;;;;;3.92;3.50;;;;;;;10.33;88.27;102033.97;4939913;28;20019;-84
2021/09/21 01:26:23;;;;;;;4.55;3.30;;;;;;;10.26;88.71;102036.50;4924787;28;20275;-85
2021/09/21 01:28:51;;;;;;;4.22;3.72;;;;;;;10.24;88.75;102040.81;4938010;28;20051;-84
2021/09/21 01:31:19;;;;;;;5.63;3.60;;;;;;;10.21;89.00;102042.53;4935333;28;20066;-86
2021/09/21 01:33:50;;;;;;;5.45;3.70;;;;;;;10.18;88.94;102026.75;4918775;28;20082;-87
2021/09/21 01:36:24;;;;;;;6.50;3.78;;;;;;;10.12;89.05;102027.56;4924370;28;20078;-84
2021/09/21 01:38:52;;;;;;;6.07;4.40;;;;;;;10.06;89.12;102028.38;4932243;28;20054;-85
2021/09/21 01:41:20;;;;;;;7.75;3.67;;;;;;;10.01;89.46;102030.03;4923157;28;20058;-85
2021/09/21 01:43:48;;;;;;;5.35;3.92;;;;;;;9.99;89.67;102028.25;4938773;28;20098;-85
2021/09/21 01:46:24;;;;;;;5.53;3.58;;;;;;;9.99;89.88;102033.47;4915279;28;20039;-86
2021/09/21 01:48:51;;;;;;;4.65;3.35;;;;;;;9.99;89.32;102041.31;4940919;28;20065;-85
2021/09/21 01:51:30;;;;;;;3.92;3.25;;;;;;;9.95;89.35;102027.31;4917994;28;20074;-87
2021/09/21 01:54:10;;;;;;;4.68;3.65;;;;;;;9.94;89.38;102036.88;4939565;28;20315;-85
2021/09/21 01:59:35;;;;;;;5.20;4.30;;;;;;;9.93;89.60;102032.53;4925040;28;20046;-84
2021/09/21 02:02:02;;;;;;;3.55;3.25;;;;;;;9.96;89.43;102023.84;4935168;28;20055;-83
2021/09/21 02:04:29;;;;;;;4.60;3.90;;;;;;;9.98;89.02;102032.56;4919602;28;20079;-87
2021/09/21 02:06:58;;;;;;;4.82;3.00;;;;;;;10.01;89.14;102029.13;4947323;28;20066;-85
2021/09/21 02:09:25;;;;;;;6.82;3.78;;;;;;;10.01;89.13;102032.63;4926374;28;20054;-85
2021/09/21 02:11:55;;;;;;;12.63;4.53;;;;;;;9.97;88.58;102029.94;4920121;28;20540;-85
2021/09/21 02:14:22;;;;;;;4.93;4.22;;;;;;;9.87;89.21;102032.41;4918297;28;20059;-85
2021/09/21 02:16:51;;;;;;;5.15;4.65;;;;;;;9.77;89.56;102033.97;4925033;28;20039;-87
2021/09/21 02:19:18;;;;;;;5.30;3.67;;;;;;;9.67;89.87;102026.84;4922317;28;20047;-87
2021/09/21 02:21:44;;;;;;;5.45;3.85;;;;;;;9.55;89.95;102029.25;4932066;28;20469;-86
2021/09/21 02:24:18;;;;;;;8.10;4.60;;;;;;;9.41;90.91;102040.34;4916007;28;20074;-86
2021/09/21 02:26:48;;;;;;;6.93;3.85;;;;;;;9.30;91.44;102041.00;4926939;28;20931;-87
2021/09/21 02:29:16;;;;;;;5.60;4.25;;;;;;;9.20;92.11;102043.41;4920501;28;20089;-87
2021/09/21 02:31:42;;;;;;;5.28;4.07;;;;;;;9.10;92.65;102039.75;4915123;28;20597;-87
2021/09/21 02:34:09;;;;;;;5.05;3.85;;;;;;;9.04;92.91;102044.88;4933861;28;21333;-86
2021/09/21 02:36:40;;;;;;;6.57;4.05;;;;;;;8.94;93.21;102035.09;4937830;28;20209;-87
2021/09/21 02:39:11;;;;;;;5.07;3.83;;;;;;;8.85;93.71;102029.69;4934292;28;20086;-87
2021/09/21 02:41:44;;;;;;;5.40;4.25;;;;;;;8.78;94.34;102028.69;4938504;28;20046;-86
2021/09/21 02:44:15;;;;;;;8.77;4.70;;;;;;;8.74;95.03;102032.94;4938120;28;20043;-86
2021/09/21 02:46:42;;;;;;;5.57;3.95;;;;;;;8.69;94.80;102031.97;4917484;28;20047;-86
2021/09/21 02:49:09;;;;;;;6.80;4.40;;;;;;;8.65;95.10;102031.88;4922888;28;20509;-88
2021/09/21 02:51:36;;;;;;;7.57;4.57;;;;;;;8.60;95.38;102029.16;4921358;28;20054;-86
2021/09/21 02:54:05;;;;;;;6.65;4.90;;;;;;;8.53;96.05;102038.59;4917821;28;20102;-87
2021/09/21 02:56:34;;;;;;;7.10;4.50;;;;;;;8.49;96.04;102034.16;4932149;28;20050;-84
2021/09/21 02:59:06;;;;;;;9.57;5.68;;;;;;;8.47;96.25;102043.69;4942804;28;20123;-87
2021/09/21 03:01:34;;;;;;;8.15;4.68;;;;;;;8.46;96.63;102047.16;4918338;28;20546;-87
2021/09/21 03:04:05;;;;;;;6.10;5.15;;;;;;;8.44;96.41;102048.81;4918921;28;20497;-85
2021/09/21 03:06:33;;;;;;;8.85;4.97;;;;;;;8.40;97.41;102042.63;4941518;28;20513;-86
2021/09/21 03:09:10;;;;;;;6.22;4.97;;;;;;;8.37;97.25;102044.28;4932404;28;20379;-85
2021/09/21 03:11:41;;;;;;;7.43;4.80;;;;;;;8.35;98.15;102043.38;4923084;28;20066;-85
2021/09/21 03:17:09;;;;;;;6.68;4.40;;;;;;;8.28;98.50;102047.59;4935705;28;20090;-84
2021/09/21 03:19:36;;;;;;;6.72;5.05;;;;;;;8.25;98.67;102045.78;4934202;28;20142;-86
2021/09/21 03:22:05;;;;;;;7.32;5.32;;;;;;;8.22;99.01;102044.81;4933936;28;20043;-86
2021/09/21 03:24:33;;;;;;;5.13;4.13;;;;;;;8.19;99.20;102040.41;4911995;28;20324;-86
2021/09/21 03:27:00;;;;;;;7.93;4.90;;;;;;;8.18;99.30;102050.81;4924111;28;20062;-86
2021/09/21 03:29:43;;;;;;;10.10;5.45;;;;;;;8.14;99.35;102054.22;4909362;28;20058;-86
2021/09/21 03:32:13;;;;;;;10.27;5.90;;;;;;;8.08;99.59;102062.75;4898272;28;20062;-86
2021/09/21 03:34:47;;;;;;;8.88;6.03;;;;;;;8.03;100.00;102059.16;4916337;28;20055;-87
2021/09/21 03:37:16;;;;;;;;;;;;;;;7.99;100.00;102065.13;4907798;28;20059;-86
2021/09/21 03:39:43;;;;;;;5.53;4.10;;;;;;;7.93;100.00;102064.13;4914002;28;20319;-86
2021/09/21 03:42:12;;;;;;;8.45;5.28;;;;;;;7.91;100.00;102059.72;4912818;28;20056;-85
2021/09/21 03:44:39;;;;;;;7.45;5.15;;;;;;;7.90;100.00;102074.50;4913308;28;20074;-86
2021/09/21 03:47:06;;;;;;;9.27;4.90;;;;;;;7.88;100.00;102078.78;4896587;28;20050;-85
2021/09/21 03:49:32;;;;;;;11.25;5.28;;;;;;;7.86;100.00;102075.28;4904165;28;20047;-84
2021/09/21 03:52:02;;;;;;;14.40;6.78;;;;;;;7.87;100.00;102083.97;4919337;28;20055;-83
2021/09/21 03:54:29;;;;;;;17.95;6.32;;;;;;;7.89;100.00;102083.16;4893363;28;20133;-85
2021/09/21 03:56:55;;;;;;;17.13;6.13;;;;;;;7.90;100.00;102103.19;4914852;28;20055;-85
2021/09/21 03:59:22;;;;;;;24.40;6.65;;;;;;;7.91;100.00;102089.31;4916097;28;20075;-86
2021/09/21 04:01:49;;;;;;;15.82;6.18;;;;;;;7.94;100.00;102084.16;4915045;28;20075;-87
2021/09/21 04:04:16;;;;;;;9.88;5.50;;;;;;;7.98;100.00;102092.94;4917783;28;20688;-85
2021/09/21 04:06:44;;;;;;;12.45;5.75;;;;;;;7.99;100.00;102093.81;4919479;28;20051;-86
2021/09/21 04:09:11;;;;;;;15.10;7.15;;;;;;;8.00;100.00;102092.97;4917811;28;20047;-85
2021/09/21 04:11:44;;;;;;;10.55;7.70;;;;;;;8.07;100.00;102100.09;4918905;28;20055;-86
2021/09/21 04:14:12;;;;;;;19.55;7.07;;;;;;;8.14;100.00;102104.63;4901021;28;20516;-85
2021/09/21 04:16:39;;;;;;;20.58;6.38;;;;;;;8.21;100.00;102103.97;4900795;28;20074;-88
2021/09/21 04:19:09;;;;;;;22.33;6.45;;;;;;;8.27;100.00;102101.47;4910044;28;20147;-87
2021/09/21 04:21:38;;;;;;;12.95;5.35;;;;;;;8.37;100.00;102104.28;4898870;28;20382;-86
2021/09/21 04:24:06;;;;;;;24.25;5.55;;;;;;;8.46;100.00;102098.44;4911064;28;20060;-85
2021/09/21 04:26:33;;;;;;;10.38;5.38;;;;;;;8.54;100.00;102107.31;4920843;28;20051;-86
2021/09/21 04:29:00;;;;;;;13.00;5.72;;;;;;;8.62;99.79;102097.97;4918978;28;20798;-86
2021/09/21 04:31:28;;;;;;;10.15;5.03;;;;;;;8.69;99.75;102105.06;4902561;28;20129;-86
2021/09/21 04:33:56;;;;;;;13.90;6.82;;;;;;;8.75;98.88;102106.94;4921779;28;20135;-87
2021/09/21 04:36:23;;;;;;;15.45;6.63;;;;;;;8.78;98.85;102102.66;4917002;28;20442;-86
2021/09/21 04:38:49;;;;;;;10.00;5.75;;;;;;;8.83;98.77;102110.59;4922195;28;20059;-84
2021/09/21 04:41:42;;;;;;;8.27;5.60;;;;;;;8.88;98.21;102106.34;4905516;28;20051;-85
2021/09/21 04:44:18;;;;;;;7.07;4.78;;;;;;;8.91;98.04;102097.72;4925547;28;20602;-86
2021/09/21 04:46:45;;;;;;;8.43;5.90;;;;;;;8.93;97.42;102093.41;4934503;28;20047;-87
2021/09/21 04:49:13;;;;;;;7.50;4.90;;;;;;;8.92;97.79;102100.34;4915510;28;20150;-87
2021/09/21 04:51:40;;;;;;;9.93;5.53;;;;;;;8.92;97.15;102091.66;4907216;28;20043;-85
2021/09/21 04:54:25;;;;;;;7.80;5.75;;;;;;;8.92;97.58;102089.03;4920002;28;20494;-86
2021/09/21 04:56:57;;;;;;;7.55;5.50;;;;;;;8.92;97.27;102099.47;4909638;28;20105;-84
2021/09/21 04:59:26;;;;;;;6.07;4.60;;;;;;;8.93;97.20;102099.50;4904965;28;20074;-86
2021/09/21 05:01:53;;;;;;;10.30;5.75;;;;;;;8.97;97.27;102108.28;4921978;28;21591;-87
2021/09/21 05:04:19;;;;;;;10.75;4.75;;;;;;;9.00;96.81;102113.56;4907945;28;20055;-87
2021/09/21 05:06:48;;;;;;;10.05;5.57;;;;;;;9.03;97.05;102116.22;4903551;28;20047;-84
2021/09/21 05:09:15;;;;;;;11.13;6.60;;;;;;;9.07;96.38;102123.31;4903652;28;20050;-86
2021/09/21 05:11:44;;;;;;;24.45;10.55;;;;;;;9.10;96.26;102118.13;4917975;28;20046;-86
2021/09/21 05:14:15;;;;;;;33.70;15.68;;;;;;;9.10;96.18;102138.16;4906889;28;20047;-88
2021/09/21 05:16:43;;;;;;;38.25;15.57;;;;;;;9.13;96.23;102139.97;4917986;28;22105;-85
2021/09/21 05:19:12;;;;;;;43.75;15.60;;;;;;;9.12;96.02;102141.69;4914482;28;20046;-83
2021/09/21 05:21:41;;;;;;;34.28;13.48;;;;;;;9.14;96.25;102146.94;4907894;28;20051;-86
2021/09/21 05:24:13;;;;;;;26.35;11.10;;;;;;;9.16;96.22;102134.78;4899913;28;20043;-85
2021/09/21 05:26:40;;;;;;;22.15;9.02;;;;;;;9.17;95.92;102131.34;4920796;28;20154;-85
2021/09/21 05:29:09;;;;;;;17.00;9.35;;;;;;;9.20;95.62;102137.47;4918139;28;20395;-86
2021/09/21 05:31:37;;;;;;;14.00;7.68;;;;;;;9.24;95.88;102141.03;4922234;28;20136;-86
2021/09/21 05:34:14;;;;;;;14.68;8.05;;;;;;;9.27;95.54;102143.75;4939973;28;20055;-85
2021/09/21 05:36:41;;;;;;;12.38;8.00;;;;;;;9.30;95.61;102146.41;4938759;28;20047;-87
2021/09/21 05:39:09;;;;;;;11.43;7.10;;;;;;;9.35;95.54;102139.53;4921665;28;20059;-86
2021/09/21 05:41:35;;;;;;;10.98;6.57;;;;;;;9.39;95.40;102138.75;4913226;28;20079;-88
2021/09/21 05:44:05;;;;;;;15.45;7.05;;;;;;;9.44;95.06;102142.34;4938807;28;21252;-89
2021/09/21 05:46:32;;;;;;;10.73;6.15;;;;;;;9.49;94.84;102141.53;4919047;28;20051;-87
2021/09/21 05:48:59;;;;;;;13.10;7.07;;;;;;;9.52;94.76;102146.84;4922591;28;20522;-87
2021/09/21 05:51:28;;;;;;;17.27;6.65;;;;;;;9.55;94.48;102153.00;4922090;28;20054;-88
2021/09/21 05:53:55;;;;;;;14.73;7.03;;;;;;;9.59;94.27;102151.31;4934805;28;20573;-87
2021/09/21 05:56:26;;;;;;;13.18;6.43;;;;;;;9.64;94.02;102159.28;4920902;28;20055;-88
2021/09/21 05:58:53;;;;;;;12.68;5.97;;;;;;;9.69;94.21;102161.09;4915743;28;20806;-88
2021/09/21 06:01:20;;;;;;;10.68;6.30;;;;;;;9.74;93.57;102161.22;4919475;28;20060;-87
2021/09/21 06:03:48;;;;;;;16.52;6.72;;;;;;;9.81;93.28;102159.59;4918582;28;20059;-85
2021/09/21 06:06:17;;;;;;;8.98;5.78;;;;;;;9.87;92.60;102157.09;4923457;28;20571;-85
2021/09/21 06:08:43;;;;;;;12.50;6.22;;;;;;;9.91;92.26;102149.31;4924369;28;20050;-87
2021/09/21 06:11:10;;;;;;;15.30;6.30;;;;;;;9.93;91.96;102158.06;4910552;28;20051;-87
2021/09/21 06:13:37;;;;;;;10.70;6.70;;;;;;;9.99;91.96;102174.75;4937286;28;20055;-87
2021/09/21 06:16:04;;;;;;;8.65;5.50;;;;;;;10.02;91.76;102177.41;4933677;28;20054;-87
2021/09/21 06:18:30;;;;;;;13.93;6.22;;;;;;;10.04;91.44;102168.72;4923333;28;22371;-86
2021/09/21 06:20:57;;;;;;;10.40;5.45;;;;;;;10.07;91.09;102179.22;4939328;28;20164;-85
2021/09/21 06:23:24;;;;;;;10.05;6.55;;;;;;;10.09;91.04;102174.06;4919622;28;20070;-87
2021/09/21 06:25:53;;;;;;;9.90;5.75;;;;;;;10.10;90.91;102175.78;4937917;28;20051;-85
2021/09/21 06:28:20;;;;;;;11.23;7.20;;;;;;;10.12;91.04;102181.03;4922293;28;20063;-87
2021/09/21 06:30:47;;;;;;;9.82;6.38;;;;;;;10.16;90.56;102191.59;4923049;28;20065;-87
2021/09/21 06:33:13;;;;;;;9.98;6.25;;;;;;;10.21;90.43;102191.69;4921626;28;20070;-88
2021/09/21 06:35:40;;;;;;;11.70;6.53;;;;;;;10.26;90.21;102196.16;4925071;28;20066;-84
2021/09/21 06:38:07;;;;;;;13.18;6.63;;;;;;;10.30;90.10;102193.56;4922997;28;20047;-86
2021/09/21 06:40:45;;;;;;;7.93;5.57;;;;;;;10.33;89.39;102199.75;4935299;28;20106;-83
2021/09/21 06:43:12;;;;;;;9.63;5.88;;;;;;;10.37;89.50;102201.59;4931258;28;20046;-86
2021/09/21 06:45:42;;;;;;;6.28;5.13;;;;;;;10.42;88.76;102207.78;4910532;29;20556;-83
2021/09/21 06:48:14;;;;;;;10.20;6.30;;;;;;;10.49;88.61;102203.53;4912939;28;20047;-87
2021/09/21 06:50:45;;;;;;;8.82;5.57;;;;;;;10.53;87.68;102200.13;4928553;28;20111;-85
2021/09/21 06:53:12;;;;;;;9.07;5.07;;;;;;;10.53;87.73;102196.59;4925810;28;20055;-87
2021/09/21 06:55:38;;;;;;;9.18;5.32;;;;;;;10.56;87.87;102200.16;4939342;28;20053;-86
2021/09/21 06:58:10;;;;;;;6.10;5.13;;;;;;;10.62;87.21;102207.22;4924151;28;20054;-87
2021/09/21 07:00:38;;;;;;;9.32;5.03;;;;;;;10.65;86.76;102206.41;4929026;28;20058;-87
2021/09/21 07:03:07;;;;;;;6.88;5.32;;;;;;;10.65;86.36;102198.53;4923829;28;20470;-85
2021/09/21 07:05:35;;;;;;;7.85;5.93;;;;;;;10.69;86.41;102209.09;4916546;28;20047;-87
2021/09/21 07:08:02;;;;;;;7.53;4.78;;;;;;;10.75;86.21;102200.44;4930250;28;20069;-86
2021/09/21 07:10:28;;;;;;;6.03;4.97;;;;;;;10.84;86.11;102205.81;4913118;28;20051;-84
2021/09/21 07:12:55;;;;;;;7.78;5.30;;;;;;;10.95;85.35;102197.22;4938515;28;20075;-86
2021/09/21 07:15:24;;;;;;;7.93;5.55;;;;;;;11.02;83.89;102191.25;4907226;28;20047;-86
2021/09/21 07:17:54;;;;;;;8.30;4.90;;;;;;;11.07;83.60;102200.91;4909790;28;20050;-86
2021/09/21 07:20:22;;;;;;;8.68;4.55;;;;;;;11.09;83.79;102217.56;4905794;28;20079;-87
2021/09/21 07:22:50;;;;;;;5.97;5.38;;;;;;;11.13;83.67;102218.44;4911801;28;20047;-87
2021/09/21 07:25:20;;;;;;;7.28;4.80;;;;;;;11.16;83.13;102218.50;4911236;28;20170;-86
2021/09/21 07:27:54;;;;;;;7.38;5.10;;;;;;;11.19;83.32;102220.28;4905415;28;20083;-86
2021/09/21 07:30:21;;;;;;;8.38;5.10;;;;;;;11.21;83.29;102227.31;4923472;28;20900;-83
2021/09/21 07:32:49;;;;;;;7.45;4.95;;;;;;;11.28;83.04;102237.88;4905547;28;20047;-85
2021/09/21 07:35:25;;;;;;;12.15;4.93;;;;;;;11.33;82.82;102236.19;4927035;28;20054;-87
2021/09/21 07:37:54;;;;;;;6.93;5.53;;;;;;;11.40;82.50;102238.03;4923168;28;20059;-87
2021/09/21 07:40:21;;;;;;;8.57;4.28;;;;;;;11.51;82.74;102236.47;4909740;28;20043;-87
2021/09/21 07:42:50;;;;;;;7.70;4.28;;;;;;;11.65;82.21;102228.72;4928081;28;20051;-87
2021/09/21 07:45:17;;;;;;;6.43;4.95;;;;;;;11.78;81.44;102229.75;4918346;28;20051;-85
2021/09/21 07:47:48;;;;;;;8.70;5.10;;;;;;;11.89;81.18;102233.38;4911496;28;21106;-84
2021/09/21 07:50:16;;;;;;;9.32;5.30;;;;;;;12.02;80.42;102223.94;4925301;28;20059;-86
2021/09/21 07:52:44;;;;;;;10.52;5.55;;;;;;;12.09;80.08;102227.50;4913951;28;20047;-86
2021/09/21 07:55:11;;;;;;;7.57;5.32;;;;;;;12.15;79.55;102218.78;4897562;28;20053;-86
2021/09/21 07:57:38;;;;;;;8.57;5.15;;;;;;;12.22;79.26;102218.00;4920413;28;20425;-86
2021/09/21 08:00:10;;;;;;;10.45;4.90;;;;;;;12.32;78.81;102218.94;4912132;28;20048;-83
2021/09/21 08:02:37;;;;;;;9.27;5.43;;;;;;;12.45;76.91;102219.94;4908572;28;20825;-86
2021/09/21 08:05:04;;;;;;;7.47;5.47;;;;;;;12.54;76.55;102225.28;4924728;28;20635;-83
2021/09/21 08:07:31;;;;;;;9.38;5.15;;;;;;;12.60;76.50;102227.09;4904607;28;20051;-83
2021/09/21 08:10:04;;;;;;;7.28;4.78;;;;;;;12.70;75.86;102226.28;4910802;28;20666;-86
2021/09/21 08:12:31;;;;;;;12.73;5.55;;;;;;;12.84;75.22;102229.91;4910328;28;20055;-83
2021/09/21 08:14:58;;;;;;;5.43;4.45;;;;;;;13.03;74.53;102237.91;4904802;28;21278;-84
2021/09/21 08:17:27;;;;;;;7.30;5.35;;;;;;;13.26;73.75;102240.66;4907149;28;20047;-84
2021/09/21 08:19:56;;;;;;;6.10;4.30;;;;;;;13.49;72.42;102255.72;4921066;28;20095;-84
2021/09/21 08:22:23;;;;;;;5.88;4.13;;;;;;;13.75;72.04;102260.19;4907476;28;20059;-88
2021/09/21 08:24:50;;;;;;;5.90;3.80;;;;;;;13.98;71.29;102258.50;4923446;28;20047;-84
2021/09/21 08:27:37;;;;;;;5.22;4.07;;;;;;;14.16;70.45;102264.72;4910635;28;20141;-83
2021/09/21 08:30:09;;;;;;;7.38;5.28;;;;;;;14.33;69.63;102262.09;4920485;28;20506;-88
2021/09/21 08:32:35;;;;;;;11.23;6.05;;;;;;;14.44;68.77;102270.88;4899470;28;20491;-83
2021/09/21 08:35:02;;;;;;;11.82;5.47;;;;;;;14.53;68.37;102264.75;4919716;28;20974;-85
2021/09/21 08:37:29;;;;;;;7.63;4.15;;;;;;;14.56;66.92;102272.63;4902937;28;20506;-81
2021/09/21 08:39:56;;;;;;;4.75;3.88;;;;;;;14.67;67.21;102277.97;4921394;28;20047;-82
2021/09/21 08:42:22;;;;;;;5.63;3.38;;;;;;;14.82;66.63;102271.81;4908194;28;20051;-81
2021/09/21 08:44:49;;;;;;;5.18;3.92;;;;;;;14.98;65.83;102278.81;4917559;28;20055;-82
2021/09/21 08:47:17;;;;;;;6.18;4.15;;;;;;;15.24;65.04;102279.66;4906951;28;21099;-86
2021/09/21 08:49:48;;;;;;;6.03;3.95;;;;;;;15.46;63.88;102272.53;4920345;28;20051;-82
2021/09/21 08:52:15;;;;;;;9.13;3.58;;;;;;;15.65;63.16;102271.59;4922119;28;20055;-84
2021/09/21 08:54:42;;;;;;;4.18;3.10;;;;;;;15.80;62.50;102270.66;4919691;28;20051;-81
2021/09/21 08:57:09;;;;;;;3.80;3.00;;;;;;;15.91;61.50;102259.19;4919626;28;20055;-85
2021/09/21 08:59:39;;;;;;;5.28;3.33;;;;;;;15.96;60.59;102249.50;4920076;28;20155;-82
2021/09/21 09:02:12;;;;;;;5.90;3.47;;;;;;;15.95;60.88;102250.38;4899505;28;20051;-82
2021/09/21 09:04:41;;;;;;;6.57;3.57;;;;;;;15.72;59.21;102251.31;4905223;28;20047;-85
2021/09/21 09:07:08;;;;;;;5.20;4.05;;;;;;;15.36;60.95;102254.09;4917037;28;20039;-86
2021/09/21 09:09:38;;;;;;;5.60;3.58;;;;;;;14.99;60.86;102255.97;4918696;28;20047;-85
2021/09/21 09:12:18;;;;;;;6.20;3.05;;;;;;;14.81;61.43;102254.22;4920905;28;20498;-84
2021/09/21 09:14:44;;;;;;;7.22;3.15;;;;;;;14.75;61.64;102255.13;4934728;28;20066;-84
2021/09/21 09:17:14;;;;;;;4.05;3.47;;;;;;;14.78;59.31;102262.13;4908234;28;20039;-83
2021/09/21 09:19:43;;;;;;;3.60;2.65;;;;;;;14.81;60.95;102255.13;4920651;28;20039;-82
2021/09/21 09:22:14;;;;;;;4.30;3.38;;;;;;;14.92;60.92;102249.81;4923857;28;21076;-86
2021/09/21 09:25:01;;;;;;;3.53;2.55;;;;;;;15.11;60.60;102253.31;4904755;28;20137;-84
2021/09/21 09:27:44;;;;;;;4.55;3.15;;;;;;;15.33;59.83;102259.41;4922297;28;20075;-85
2021/09/21 09:30:14;;;;;;;4.03;2.70;;;;;;;15.42;59.65;102255.84;4921242;28;20415;-83
2021/09/21 09:32:49;;;;;;;3.50;2.58;;;;;;;15.50;58.87;102258.44;4915264;28;20062;-84
2021/09/21 09:35:34;;;;;;;2.53;2.33;;;;;;;15.66;57.16;102261.94;4905435;28;20055;-83
2021/09/21 09:38:22;;;;;;;4.30;3.22;;;;;;;15.90;57.78;102257.44;4903634;28;20604;-85
2021/09/21 09:40:54;;;;;;;3.60;3.10;;;;;;;16.11;56.72;102267.00;4907342;28;20059;-85
2021/09/21 09:43:25;;;;;;;3.90;2.80;;;;;;;16.12;56.92;102261.69;4913396;28;20039;-83
2021/09/21 09:45:59;;;;;;;3.75;3.13;;;;;;;15.96;57.35;102267.97;4906024;28;20170;-83
2021/09/21 09:48:26;;;;;;;3.88;3.08;;;;;;;15.81;57.69;102269.81;4916756;28;20612;-83
2021/09/21 09:50:56;;;;;;;5.70;3.58;;;;;;;15.55;57.12;102270.75;4920227;28;20102;-88
2021/09/21 09:53:27;;;;;;;3.90;2.80;;;;;;;15.39;58.63;102275.19;4919291;28;20055;-82
2021/09/21 09:55:57;;;;;;;2.53;2.33;;;;;;;15.29;58.30;102272.59;4903166;28;20162;-86
2021/09/21 09:58:27;;;;;;;5.10;3.72;;;;;;;15.24;58.44;102271.72;4921033;28;20050;-85
2021/09/21 10:00:56;;;;;;;3.05;2.70;;;;;;;15.19;57.89;102270.00;4918105;28;20058;-84
2021/09/21 10:03:25;;;;;;;5.00;2.55;;;;;;;15.24;58.24;102274.38;4922708;28;20058;-83
2021/09/21 10:05:52;;;;;;;2.38;2.17;;;;;;;15.22;58.16;102274.38;4917946;28;20142;-84
2021/09/21 10:08:19;;;;;;;17.90;3.30;;;;;;;15.29;58.19;102276.13;4922794;28;20142;-86
2021/09/21 10:10:46;;;;;;;3.55;2.80;;;;;;;15.39;57.93;102276.97;4919985;28;20063;-83
2021/09/21 10:13:17;;;;;;;3.92;2.83;;;;;;;15.42;57.86;102279.59;4921547;28;20051;-83
2021/09/21 10:15:45;;;;;;;7.32;3.17;;;;;;;15.51;57.64;102279.59;4925677;28;20043;-83
2021/09/21 10:18:21;;;;;;;4.75;2.92;;;;;;;15.61;57.01;102279.53;4901441;28;20055;-87
2021/09/21 10:21:03;;;;;;;6.03;3.08;;;;;;;15.64;56.98;102276.88;4920901;28;20046;-82
2021/09/21 10:23:40;;;;;;;3.20;2.90;;;;;;;15.57;57.67;102275.16;4917447;28;20035;-82
2021/09/21 10:26:23;;;;;;;4.68;3.40;;;;;;;15.63;57.33;102280.41;4929496;28;20133;-83
2021/09/21 10:28:57;;;;;;;3.15;2.80;;;;;;;15.79;57.34;102281.25;4937906;28;20039;-84
2021/09/21 10:31:26;;;;;;;6.30;3.05;;;;;;;15.95;57.09;102276.78;4927153;28;20050;-82
2021/09/21 10:33:56;;;;;;;3.97;2.97;;;;;;;16.04;56.98;102280.22;4924697;28;20051;-86
2021/09/21 10:36:32;;;;;;;4.00;2.50;;;;;;;16.15;56.49;102281.94;4938145;28;20065;-84
2021/09/21 10:39:11;;;;;;;5.60;2.80;;;;;;;16.07;55.79;102275.84;4935576;28;20050;-83
2021/09/21 10:42:04;;;;;;;3.28;2.70;;;;;;;15.93;54.77;102290.00;4920352;28;20141;-84
2021/09/21 10:44:33;;;;;;;5.57;3.53;;;;;;;16.01;55.72;102292.59;4940410;28;20049;-82
2021/09/21 10:47:03;;;;;;;4.18;2.60;;;;;;;16.01;56.02;102282.91;4920677;28;20039;-84
2021/09/21 10:49:41;;;;;;;4.25;3.25;;;;;;;16.07;55.92;102287.25;4955722;28;20057;-81
2021/09/21 10:52:13;;;;;;;6.70;3.03;;;;;;;16.08;55.86;102283.75;4933865;28;20414;-83
2021/09/21 10:54:56;;;;;;;3.22;2.53;;;;;;;16.13;55.00;102291.66;4923664;28;20042;-83
2021/09/21 10:57:34;;;;;;;4.38;2.92;;;;;;;16.13;55.08;102289.00;4926518;28;20408;-81
2021/09/21 11:00:20;;;;;;;3.33;3.00;;;;;;;16.27;54.79;102291.53;4926885;28;20067;-82
2021/09/21 11:02:52;;;;;;;3.65;2.35;;;;;;;16.46;54.56;102287.03;4926769;28;20130;-85
2021/09/21 11:05:26;;;;;;;2.53;2.33;;;;;;;16.59;54.21;102287.81;4921745;28;20050;-85
2021/09/21 11:08:01;;;;;;;7.53;2.85;;;;;;;16.55;53.54;102286.94;4927408;28;20077;-85
2021/09/21 11:10:36;;;;;;;3.85;2.92;;;;;;;16.51;51.77;102295.81;4922566;28;20573;-82
2021/09/21 11:13:11;;;;;;;5.35;2.90;;;;;;;16.44;53.31;102286.16;4941322;28;20449;-84
2021/09/21 11:15:44;;;;;;;7.72;3.10;;;;;;;16.33;53.04;102284.44;4920084;28;20055;-83
2021/09/21 11:18:20;;;;;;;5.82;2.92;;;;;;;16.21;53.04;102277.50;4940651;28;20394;-81
2021/09/21 11:21:12;;;;;;;2.75;2.55;;;;;;;16.17;53.19;102283.69;4944738;28;20093;-84
2021/09/21 11:23:43;;;;;;;7.03;2.83;;;;;;;16.08;52.96;102285.53;4926680;28;20142;-82
2021/09/21 11:26:17;;;;;;;3.10;2.45;;;;;;;15.97;53.04;102283.81;4942141;28;20069;-82
2021/09/21 11:28:57;;;;;;;5.10;3.08;;;;;;;15.79;53.02;102291.81;4907483;28;20054;-86
2021/09/21 11:31:24;;;;;;;4.38;3.33;;;;;;;15.60;53.56;102286.56;4915843;28;20930;-82
2021/09/21 11:33:53;;;;;;;3.10;2.70;;;;;;;15.48;53.96;102279.56;4903213;28;20575;-84
2021/09/21 11:36:22;;;;;;;5.10;3.15;;;;;;;15.31;53.69;102284.91;4907207;28;20047;-83
2021/09/21 11:38:53;;;;;;;4.60;2.75;;;;;;;15.21;54.32;102280.53;4919046;28;20055;-86
2021/09/21 11:41:21;;;;;;;6.07;2.47;;;;;;;15.14;54.59;102276.16;4910614;28;20062;-84
2021/09/21 11:43:48;;;;;;;2.78;2.55;;;;;;;15.10;54.12;102275.28;4940891;28;20047;-85
2021/09/21 11:46:15;;;;;;;8.30;3.42;;;;;;;15.11;54.43;102276.16;4918980;28;20138;-83